createdAt,value
2022-08-14T00:04:57.112Z,7.85
2022-08-14T00:10:49.364Z,8.30
2022-08-14T00:15:29.855Z,7.85
2022-08-14T00:20:43.239Z,8.45
2022-08-14T00:25:53.851Z,9.02
2022-08-14T00:31:09.685Z,9.55
2022-08-14T00:36:35.422Z,8.40
2022-08-14T00:41:34.317Z,8.75
2022-08-14T00:46:37.792Z,9.20
2022-08-14T00:51:41.134Z,11.20
2022-08-14T00:56:43.141Z,9.27
2022-08-14T01:01:46.041Z,8.85
2022-08-14T01:06:51.957Z,8.48
2022-08-14T01:12:03.536Z,8.18
2022-08-14T01:17:05.814Z,8.40
2022-08-14T01:22:12.508Z,9.02
2022-08-14T01:27:19.692Z,9.38
2022-08-14T01:32:23.600Z,8.80
2022-08-14T01:37:26.288Z,8.55
2022-08-14T01:42:36.061Z,9.63
2022-08-14T01:47:38.921Z,8.68
2022-08-14T01:52:59.224Z,9.60
2022-08-14T01:58:19.509Z,9.77
2022-08-14T02:03:30.038Z,11.68
2022-08-14T02:08:34.633Z,9.70
2022-08-14T02:13:38.189Z,9.68
2022-08-14T02:18:40.037Z,9.43
2022-08-14T02:23:42.970Z,9.32
2022-08-14T02:28:57.649Z,9.75
2022-08-14T02:34:14.714Z,9.57
2022-08-14T02:39:25.148Z,9.43
2022-08-14T02:44:30.057Z,9.43
2022-08-14T02:49:34.331Z,9.68
2022-08-14T02:54:36.506Z,10.90
2022-08-14T02:59:40.346Z,11.85
2022-08-14T03:04:45.203Z,10.02
2022-08-14T03:10:25.588Z,10.25
2022-08-14T03:15:14.225Z,9.90
2022-08-14T03:25:24.043Z,11.00
2022-08-14T03:30:39.014Z,10.55
2022-08-14T03:36:05.148Z,10.68
2022-08-14T03:41:10.913Z,10.68
2022-08-14T03:46:51.767Z,10.63
2022-08-14T03:51:37.858Z,10.60
2022-08-14T03:56:44.585Z,10.63
2022-08-14T04:01:58.100Z,10.57
2022-08-14T04:07:04.033Z,11.35
2022-08-14T04:12:06.390Z,10.63
2022-08-14T04:17:11.208Z,11.23
2022-08-14T04:22:16.691Z,10.23
2022-08-14T04:27:18.560Z,11.20
2022-08-14T04:33:02.298Z,11.23
2022-08-14T04:38:07.672Z,11.00
2022-08-14T04:43:39.980Z,11.00
2022-08-14T04:48:43.681Z,11.23
2022-08-14T04:53:54.294Z,11.32
2022-08-14T04:59:02.096Z,11.32
2022-08-14T05:04:05.673Z,11.18
2022-08-14T05:09:10.578Z,11.15
2022-08-14T05:14:45.609Z,11.32
2022-08-14T05:19:44.588Z,11.07
2022-08-14T05:25:04.277Z,10.98
2022-08-14T05:30:07.496Z,11.20
2022-08-14T05:35:11.732Z,10.55
2022-08-14T05:40:13.548Z,10.88
2022-08-14T05:45:17.263Z,12.32
2022-08-14T05:50:19.892Z,11.10
2022-08-14T05:55:23.282Z,11.65
2022-08-14T06:00:34.796Z,11.55
2022-08-14T06:05:39.855Z,11.35
2022-08-14T06:10:42.583Z,12.18
2022-08-14T06:15:45.200Z,12.27
2022-08-14T06:20:47.338Z,12.18
2022-08-14T06:25:52.853Z,11.88
2022-08-14T06:30:55.877Z,12.32
2022-08-14T06:35:58.308Z,12.27
2022-08-14T06:41:00.792Z,10.88
2022-08-14T06:46:04.030Z,11.23
2022-08-14T06:51:05.965Z,11.10
2022-08-14T06:56:07.866Z,10.88
2022-08-14T07:01:45.174Z,10.95
2022-08-14T07:06:47.792Z,10.90
2022-08-14T07:11:49.742Z,10.65
2022-08-14T07:16:51.680Z,10.63
2022-08-14T07:21:53.456Z,10.18
2022-08-14T07:26:55.306Z,11.27
2022-08-14T07:31:57.224Z,10.05
2022-08-14T07:37:00.948Z,10.80
2022-08-14T07:42:03.639Z,10.50
2022-08-14T07:47:05.705Z,9.77
2022-08-14T07:52:08.086Z,8.88
2022-08-14T07:57:12.275Z,9.88
2022-08-14T08:02:19.558Z,10.18
2022-08-14T08:07:30.094Z,9.57
2022-08-14T08:12:34.369Z,10.23
2022-08-14T08:17:39.032Z,10.10
2022-08-14T08:22:48.297Z,10.70
2022-08-14T08:27:56.922Z,10.27
2022-08-14T08:33:01.547Z,10.63
2022-08-14T08:39:14.113Z,11.15
2022-08-14T08:43:35.353Z,9.27
2022-08-14T08:54:01.089Z,9.07
2022-08-14T08:59:15.432Z,8.82
2022-08-14T09:04:18.661Z,8.07
2022-08-14T09:09:30.443Z,8.25
2022-08-14T09:14:36.444Z,7.57
2022-08-14T09:19:42.505Z,6.55
2022-08-14T09:24:47.446Z,6.90
2022-08-14T09:29:54.158Z,6.30
2022-08-14T09:35:09.579Z,6.38
2022-08-14T09:40:50.503Z,6.03
2022-08-14T09:45:57.307Z,6.35
2022-08-14T09:56:06.106Z,5.40
2022-08-14T10:01:15.002Z,8.02
2022-08-14T10:06:28.100Z,5.60
2022-08-14T10:11:36.565Z,5.32
2022-08-14T10:16:45.417Z,8.02
2022-08-14T10:23:22.233Z,7.03
2022-08-14T10:27:26.668Z,5.78
2022-08-14T10:32:40.037Z,5.22
2022-08-14T10:37:52.731Z,5.30
2022-08-14T10:42:55.461Z,5.47
2022-08-14T10:48:10.309Z,8.18
2022-08-14T10:53:35.125Z,7.38
2022-08-14T10:58:36.966Z,7.20
2022-08-14T11:03:56.619Z,5.50
2022-08-14T11:08:59.196Z,5.47
2022-08-14T11:14:01.130Z,5.53
2022-08-14T11:19:08.480Z,6.13
2022-08-14T11:24:54.383Z,5.72
2022-08-14T11:29:36.921Z,5.57
2022-08-14T11:34:39.042Z,6.10
2022-08-14T11:39:41.629Z,5.30
2022-08-14T11:44:48.744Z,5.50
2022-08-14T11:49:55.598Z,5.70
2022-08-14T11:54:58.436Z,5.93
2022-08-14T12:00:08.514Z,6.15
2022-08-14T12:05:10.606Z,6.70
2022-08-14T12:10:26.511Z,6.13
2022-08-14T12:15:34.768Z,6.30
2022-08-14T12:20:45.779Z,6.38
2022-08-14T12:26:39.316Z,6.00
2022-08-14T12:31:44.596Z,6.28
2022-08-14T12:36:48.892Z,6.55
2022-08-14T12:42:01.400Z,5.88
2022-08-14T12:47:17.538Z,6.25
2022-08-14T12:52:43.240Z,6.07
2022-08-14T12:57:58.627Z,6.00
2022-08-14T13:03:01.126Z,5.70
2022-08-14T13:08:06.258Z,5.53
2022-08-14T13:13:33.522Z,5.70
2022-08-14T13:18:40.187Z,5.15
2022-08-14T13:23:43.977Z,5.80
2022-08-14T13:29:02.271Z,5.18
2022-08-14T13:34:06.483Z,5.13
2022-08-14T13:39:09.231Z,5.10
2022-08-14T13:44:16.649Z,5.00
2022-08-14T13:49:26.167Z,4.68
2022-08-14T13:54:34.245Z,4.75
2022-08-14T13:59:37.648Z,4.43
2022-08-14T14:04:46.333Z,4.60
2022-08-14T14:09:55.215Z,4.70
2022-08-14T14:14:59.158Z,4.70
2022-08-14T14:20:34.537Z,5.30
2022-08-14T14:25:45.692Z,5.57
2022-08-14T14:30:53.336Z,4.70
2022-08-14T14:35:56.745Z,4.60
2022-08-14T14:41:01.583Z,5.32
2022-08-14T14:46:09.249Z,4.82
2022-08-14T14:51:13.747Z,4.90
2022-08-14T14:56:47.979Z,4.43
2022-08-14T15:01:39.480Z,4.85
2022-08-14T15:06:47.715Z,4.35
2022-08-14T15:11:49.992Z,4.30
2022-08-14T15:16:51.966Z,3.75
2022-08-14T15:21:54.909Z,3.70
2022-08-14T15:26:58.572Z,3.80
2022-08-14T15:32:00.557Z,3.78
2022-08-14T15:37:12.677Z,4.50
2022-08-14T15:42:16.636Z,4.30
2022-08-14T15:47:21.953Z,4.32
2022-08-14T15:52:44.858Z,4.20
2022-08-14T15:57:51.459Z,4.03
2022-08-14T16:03:08.723Z,4.13
2022-08-14T16:08:29.396Z,3.90
2022-08-14T16:13:41.716Z,4.55
2022-08-14T16:18:44.505Z,4.53
2022-08-14T16:23:47.321Z,4.57
2022-08-14T16:29:02.501Z,4.72
2022-08-14T16:34:45.452Z,5.30
2022-08-14T16:39:28.725Z,5.32
2022-08-14T16:44:39.085Z,5.35
2022-08-14T16:50:04.310Z,4.82
2022-08-14T16:55:10.987Z,5.22
2022-08-14T17:00:43.575Z,5.93
2022-08-14T17:05:48.003Z,6.18
2022-08-14T17:10:52.935Z,6.05
2022-08-14T17:16:25.454Z,6.43
2022-08-14T17:21:32.658Z,6.80
2022-08-14T17:26:39.580Z,7.22
2022-08-14T17:37:33.975Z,8.77
2022-08-14T17:42:51.730Z,6.53
2022-08-14T17:47:59.185Z,7.75
2022-08-14T17:53:02.694Z,6.72
2022-08-14T17:58:22.523Z,7.30
2022-08-14T18:03:46.416Z,7.05
2022-08-14T18:08:48.830Z,7.78
2022-08-14T18:13:59.793Z,7.75
2022-08-14T18:19:03.291Z,7.28
2022-08-14T18:24:28.488Z,7.20
2022-08-14T18:29:31.781Z,6.55
2022-08-14T18:34:45.277Z,6.90
2022-08-14T18:40:03.224Z,7.38
2022-08-14T18:45:12.874Z,7.03
2022-08-14T18:50:35.622Z,7.30
2022-08-14T18:55:52.864Z,6.90
2022-08-14T19:01:07.914Z,7.40
2022-08-14T19:06:17.148Z,6.78
2022-08-14T19:11:51.991Z,7.30
2022-08-14T19:16:56.319Z,7.88
2022-08-14T19:21:58.950Z,7.43
2022-08-14T19:27:22.884Z,7.43
2022-08-14T19:32:39.696Z,7.70
2022-08-14T19:37:56.245Z,7.93
2022-08-14T19:42:59.349Z,8.63
2022-08-14T19:48:02.731Z,8.05
2022-08-14T19:53:11.246Z,8.35
2022-08-14T19:58:13.761Z,8.57
2022-08-14T20:03:18.794Z,8.35
2022-08-14T20:10:59.959Z,8.65
2022-08-14T20:14:22.819Z,8.70
2022-08-14T20:19:38.043Z,9.07
2022-08-14T20:24:45.193Z,8.73
2022-08-14T20:30:26.686Z,9.13
2022-08-14T20:35:41.845Z,9.50
2022-08-14T20:45:52.764Z,8.20
2022-08-14T20:50:57.875Z,9.82
2022-08-14T20:56:29.100Z,11.00
2022-08-14T21:01:35.699Z,8.80
2022-08-14T21:07:22.678Z,8.73
2022-08-14T21:12:03.790Z,10.27
2022-08-14T21:17:06.209Z,9.25
2022-08-14T21:22:08.042Z,11.23
2022-08-14T21:27:22.011Z,10.68
2022-08-14T21:32:50.052Z,9.68
2022-08-14T21:37:53.723Z,10.18
2022-08-14T21:42:55.744Z,10.43
2022-08-14T21:47:58.194Z,10.50
2022-08-14T21:53:03.831Z,10.13
2022-08-14T21:58:52.838Z,10.40
2022-08-14T22:03:35.009Z,10.63
2022-08-14T22:08:40.581Z,10.23
2022-08-14T22:13:48.947Z,10.10
2022-08-14T22:18:51.590Z,10.38
2022-08-14T22:23:53.823Z,11.07
2022-08-14T22:28:58.497Z,10.73
2022-08-14T22:34:00.610Z,10.95
2022-08-14T22:39:03.279Z,11.77
2022-08-14T22:44:13.326Z,12.13
2022-08-14T22:50:30.033Z,11.90
2022-08-14T22:54:52.302Z,11.90
2022-08-14T22:59:55.524Z,12.05
2022-08-14T23:04:58.159Z,12.93
2022-08-14T23:10:33.066Z,12.45
2022-08-14T23:15:24.495Z,12.43
2022-08-14T23:20:33.845Z,12.97
2022-08-14T23:25:59.719Z,12.15
2022-08-14T23:31:05.744Z,12.20
2022-08-14T23:36:32.314Z,13.20
2022-08-14T23:41:46.452Z,12.55
2022-08-14T23:47:00.474Z,12.07
2022-08-14T23:52:57.498Z,12.30
2022-08-14T23:57:28.619Z,12.60
